Time;durP1;ratioP1;P1;durP2;ratioP2;P2;SDS_P1;SDS_P2;PMS_P1;PMS_P2;Temp;Humidity;BMP_temperature;BMP_pressure;BME280_temperature;BME280_humidity;BME280_pressure;Samples;Min_cycle;Max_cycle;Signal;HPM_P1;HPM_P2
2022/06/20 00:01:04;;;;;;;1.60;0.73;;;13.30;99.90;;;;;;5077586;28;20130;-72
2022/06/20 00:03:37;;;;;;;1.20;0.88;;;13.30;99.90;;;;;;5077578;28;20040;-72
2022/06/20 00:06:03;;;;;;;0.50;0.40;;;13.30;99.90;;;;;;5077887;28;20553;-73
2022/06/20 00:08:28;;;;;;;1.08;0.50;;;13.20;99.90;;;;;;5044481;28;20044;-73
2022/06/20 00:10:54;;;;;;;1.40;0.60;;;13.20;99.90;;;;;;5075305;28;20101;-72
2022/06/20 00:13:27;;;;;;;4.10;0.43;;;13.20;99.90;;;;;;5057778;28;20047;-72
2022/06/20 00:15:56;;;;;;;1.88;0.63;;;13.40;99.90;;;;;;5074289;28;20052;-72
2022/06/20 00:18:22;;;;;;;0.95;0.50;;;13.60;99.90;;;;;;5074328;28;20427;-72
2022/06/20 00:20:48;;;;;;;1.48;0.50;;;13.10;99.90;;;;;;5057491;28;20388;-72
2022/06/20 00:23:14;;;;;;;1.77;0.52;;;13.10;99.90;;;;;;5074539;28;20098;-72
2022/06/20 00:25:41;;;;;;;5.38;0.65;;;13.10;99.90;;;;;;5057453;28;20094;-72
2022/06/20 00:28:07;;;;;;;1.33;0.65;;;13.00;99.90;;;;;;5074211;28;20036;-72
2022/06/20 00:30:35;;;;;;;4.05;0.52;;;13.10;99.90;;;;;;5074208;28;20510;-73
2022/06/20 00:33:01;;;;;;;0.50;0.40;;;13.00;99.90;;;;;;5073994;28;20041;-73
2022/06/20 00:35:27;;;;;;;1.30;0.60;;;13.10;99.90;;;;;;5073887;28;20051;-73
2022/06/20 00:37:56;;;;;;;1.45;0.77;;;13.00;99.90;;;;;;5057255;28;20043;-72
2022/06/20 00:40:34;;;;;;;1.23;0.50;;;12.70;99.90;;;;;;5074013;28;20075;-72
2022/06/20 00:43:00;;;;;;;1.55;0.57;;;13.10;99.90;;;;;;5073827;28;20131;-72
2022/06/20 00:45:29;;;;;;;0.73;0.40;;;13.10;99.90;;;;;;5057134;28;20404;-73
2022/06/20 00:48:03;;;;;;;0.63;0.57;;;13.10;99.90;;;;;;5073856;28;20078;-72
2022/06/20 00:50:32;;;;;;;2.45;0.73;;;13.10;99.90;;;;;;5074834;28;20097;-72
2022/06/20 00:53:07;;;;;;;0.85;0.57;;;13.10;99.90;;;;;;5060855;28;20048;-72
2022/06/20 00:55:45;;;;;;;4.80;0.50;;;13.00;99.90;;;;;;5060170;28;20043;-72
2022/06/20 00:58:13;;;;;;;1.20;0.73;;;13.10;99.90;;;;;;5076937;28;20044;-72
2022/06/20 01:00:40;;;;;;;1.00;0.50;;;13.10;99.90;;;;;;5077123;28;20055;-72
2022/06/20 01:03:18;;;;;;;3.30;0.60;;;13.10;99.90;;;;;;5076861;28;20032;-72
2022/06/20 01:06:04;;;;;;;0.95;0.63;;;13.10;99.90;;;;;;5076673;28;20044;-72
2022/06/20 01:09:05;;;;;;;0.98;0.60;;;13.10;99.90;;;;;;5076701;28;20071;-72
2022/06/20 01:11:55;;;;;;;1.50;0.73;;;13.10;99.90;;;;;;5022204;28;20392;-72
2022/06/20 01:14:28;;;;;;;1.38;0.82;;;13.10;99.90;;;;;;5059627;28;20074;-73
2022/06/20 01:16:58;;;;;;;0.88;0.70;;;13.10;99.90;;;;;;5076464;28;20393;-72
2022/06/20 01:20:19;;;;;;;1.87;0.90;;;13.40;99.90;;;;;;5076719;28;20048;-73
2022/06/20 01:22:50;;;;;;;0.80;0.55;;;13.10;99.90;;;;;;5021717;28;20044;-72
2022/06/20 01:25:37;;;;;;;1.25;0.63;;;13.10;99.90;;;;;;5076244;28;20052;-74
2022/06/20 01:28:05;;;;;;;1.17;0.60;;;13.10;99.90;;;;;;5059592;28;20073;-72
2022/06/20 01:30:37;;;;;;;2.92;0.70;;;13.10;99.90;;;;;;5059642;28;20044;-72
2022/06/20 01:33:04;;;;;;;1.33;0.70;;;13.20;99.90;;;;;;5076239;28;20125;-73
2022/06/20 01:38:20;;;;;;;1.10;0.63;;;13.00;99.90;;;;;;5039351;28;20052;-72
2022/06/20 01:43:33;;;;;;;1.10;0.60;;;13.00;99.90;;;;;;5075849;28;20044;-73
2022/06/20 01:46:00;;;;;;;1.42;0.70;;;12.90;99.90;;;;;;5076074;28;20048;-72
2022/06/20 01:48:32;;;;;;;2.03;0.73;;;12.90;99.90;;;;;;5059658;28;20058;-72
2022/06/20 01:50:58;;;;;;;0.98;0.63;;;12.90;99.90;;;;;;5075837;28;20090;-72
2022/06/20 01:53:31;;;;;;;2.83;1.10;;;12.80;99.90;;;;;;5075960;28;20126;-73
2022/06/20 01:55:58;;;;;;;1.20;0.60;;;12.80;99.90;;;;;;5059006;28;20109;-72
2022/06/20 01:58:33;;;;;;;1.83;0.90;;;12.80;99.90;;;;;;5059019;28;20423;-73
2022/06/20 02:01:00;;;;;;;1.45;0.65;;;12.80;99.90;;;;;;5075584;28;20032;-72
2022/06/20 02:03:28;;;;;;;3.95;0.93;;;12.80;99.90;;;;;;5075744;28;20376;-72
2022/06/20 02:05:56;;;;;;;6.00;1.00;;;12.80;99.90;;;;;;5075609;28;20502;-73
2022/06/20 02:08:23;;;;;;;1.42;0.77;;;12.70;99.90;;;;;;5075884;28;20047;-72
2022/06/20 02:11:02;;;;;;;0.80;0.70;;;12.70;99.90;;;;;;5093562;28;20055;-72
2022/06/20 02:13:32;;;;;;;1.58;0.82;;;12.70;99.90;;;;;;5075493;28;20047;-72
2022/06/20 02:16:06;;;;;;;3.72;0.70;;;12.60;99.90;;;;;;5075286;28;20114;-72
2022/06/20 02:18:35;;;;;;;3.78;0.98;;;12.60;99.90;;;;;;5075395;28;20036;-72
2022/06/20 02:21:05;;;;;;;1.70;0.57;;;12.60;99.90;;;;;;5075223;28;20048;-72
2022/06/20 02:23:36;;;;;;;0.77;0.75;;;12.60;99.90;;;;;;5075306;28;20090;-72
2022/06/20 02:26:05;;;;;;;2.25;1.10;;;12.50;99.90;;;;;;5075349;28;20148;-72
2022/06/20 02:28:54;;;;;;;3.60;1.05;;;13.00;99.90;;;;;;5075504;28;20039;-72
2022/06/20 02:31:21;;;;;;;5.10;0.70;;;12.40;99.90;;;;;;5075415;28;20069;-72
2022/06/20 02:33:47;;;;;;;2.58;0.70;;;12.40;99.90;;;;;;5074817;28;20045;-72
2022/06/20 02:36:13;;;;;;;3.50;0.90;;;12.40;99.90;;;;;;5075143;28;20048;-72
2022/06/20 02:38:39;;;;;;;0.77;0.63;;;12.30;99.90;;;;;;5058647;28;20044;-72
2022/06/20 02:41:06;;;;;;;3.13;1.08;;;12.30;99.90;;;;;;5075295;28;20113;-72
2022/06/20 02:43:35;;;;;;;1.02;0.85;;;12.30;99.90;;;;;;5075236;28;20032;-72
2022/06/20 02:46:02;;;;;;;1.20;0.55;;;12.30;99.90;;;;;;5074950;28;20073;-73
2022/06/20 02:48:30;;;;;;;0.50;0.43;;;12.60;99.90;;;;;;5074984;28;20044;-72
2022/06/20 02:51:03;;;;;;;1.30;0.70;;;12.20;99.90;;;;;;5058180;28;20072;-72
2022/06/20 02:53:41;;;;;;;1.27;0.75;;;12.20;99.90;;;;;;5074829;28;20052;-72
2022/06/20 02:56:12;;;;;;;3.30;0.60;;;12.10;99.90;;;;;;5074769;28;20044;-72
2022/06/20 02:58:42;;;;;;;3.72;0.93;;;12.10;99.90;;;;;;5058365;28;20500;-72
2022/06/20 03:01:18;;;;;;;1.33;0.70;;;12.00;99.90;;;;;;5075145;28;20044;-72
2022/06/20 03:03:48;;;;;;;1.00;0.47;;;12.30;99.90;;;;;;5074873;28;20071;-72
2022/06/20 03:06:33;;;;;;;1.02;0.70;;;11.90;99.90;;;;;;5075147;28;20048;-73
2022/06/20 03:09:00;;;;;;;2.88;0.70;;;11.90;99.90;;;;;;5074827;28;20055;-72
2022/06/20 03:11:28;;;;;;;2.85;0.98;;;11.90;99.90;;;;;;5074827;28;20047;-72
2022/06/20 03:13:57;;;;;;;1.10;0.70;;;11.90;99.90;;;;;;5074703;28;20040;-72
2022/06/20 03:16:23;;;;;;;2.38;1.00;;;11.80;99.90;;;;;;5074656;28;20052;-72
2022/06/20 03:18:51;;;;;;;1.13;0.50;;;11.80;99.90;;;;;;5092917;28;20517;-72
2022/06/20 03:21:23;;;;;;;2.80;0.80;;;11.80;99.90;;;;;;5074712;28;20036;-72
2022/06/20 03:23:50;;;;;;;0.95;0.68;;;11.80;99.90;;;;;;5074763;28;20449;-72
2022/06/20 03:26:21;;;;;;;0.88;0.55;;;11.80;99.90;;;;;;5057905;28;20054;-72
2022/06/20 03:28:46;;;;;;;1.15;0.80;;;11.80;99.90;;;;;;5074956;28;20540;-72
2022/06/20 03:31:12;;;;;;;1.35;0.60;;;11.70;99.90;;;;;;5074583;28;20075;-72
2022/06/20 03:33:39;;;;;;;1.27;0.73;;;11.70;99.90;;;;;;5074606;28;20110;-72
2022/06/20 03:36:10;;;;;;;0.75;0.60;;;12.10;99.90;;;;;;5057827;28;20051;-72
2022/06/20 03:38:38;;;;;;;1.63;0.80;;;11.70;99.90;;;;;;5074562;28;20073;-73
2022/06/20 03:41:06;;;;;;;2.53;0.85;;;11.70;99.90;;;;;;5074690;28;20031;-72
2022/06/20 03:43:33;;;;;;;0.50;0.50;;;11.80;99.90;;;;;;5074811;28;20075;-72
2022/06/20 03:46:02;;;;;;;1.25;0.80;;;11.70;99.90;;;;;;5058105;28;20078;-72
2022/06/20 03:48:34;;;;;;;1.02;0.63;;;11.70;99.90;;;;;;5078177;28;20043;-72
2022/06/20 03:51:22;;;;;;;0.95;0.88;;;11.70;99.90;;;;;;5078174;28;20093;-72
2022/06/20 03:54:07;;;;;;;3.03;1.00;;;11.70;99.90;;;;;;5078106;28;20069;-72
2022/06/20 03:57:07;;;;;;;1.05;0.60;;;11.70;99.90;;;;;;5061373;28;20042;-72
2022/06/20 03:59:54;;;;;;;0.98;0.80;;;11.70;99.90;;;;;;5073148;28;20056;-72
2022/06/20 04:02:34;;;;;;;0.63;0.50;;;11.70;99.90;;;;;;5077867;28;20032;-69
2022/06/20 04:05:30;;;;;;;2.42;0.65;;;11.70;99.90;;;;;;5078013;28;20050;-70
2022/06/20 04:08:10;;;;;;;0.60;0.50;;;11.60;99.90;;;;;;5078153;28;20047;-68
2022/06/20 04:11:03;;;;;;;1.55;0.80;;;11.60;99.90;;;;;;5077908;28;20079;-70
2022/06/20 04:13:57;;;;;;;1.58;0.77;;;11.60;99.90;;;;;;5077654;28;20066;-69
2022/06/20 04:16:50;;;;;;;1.02;0.60;;;11.60;99.90;;;;;;5077707;28;20720;-69
2022/06/20 04:19:35;;;;;;;0.93;0.60;;;11.70;99.90;;;;;;5076917;28;20135;-68
2022/06/20 04:22:12;;;;;;;2.03;0.93;;;11.80;99.90;;;;;;5077861;28;20049;-68
2022/06/20 04:24:46;;;;;;;3.45;1.10;;;11.80;99.90;;;;;;5077815;28;20043;-69
2022/06/20 04:27:41;;;;;;;3.15;0.98;;;11.80;99.90;;;;;;5077494;28;20093;-68
2022/06/20 04:30:33;;;;;;;3.72;0.90;;;11.80;99.90;;;;;;5060789;28;20473;-68
2022/06/20 04:33:07;;;;;;;3.20;1.08;;;11.90;99.90;;;;;;5077414;28;20044;-69
2022/06/20 04:35:39;;;;;;;1.08;0.70;;;11.90;99.90;;;;;;5077418;28;20032;-69
2022/06/20 04:38:20;;;;;;;2.90;1.08;;;12.00;99.90;;;;;;5077256;28;20036;-69
2022/06/20 04:41:02;;;;;;;1.80;0.80;;;12.10;99.90;;;;;;5077443;28;20488;-68
2022/06/20 04:43:36;;;;;;;1.20;0.65;;;12.20;99.90;;;;;;5077309;28;20040;-69
2022/06/20 04:46:25;;;;;;;1.33;0.90;;;12.30;99.90;;;;;;5077495;28;20484;-69
2022/06/20 04:48:51;;;;;;;1.80;0.70;;;12.40;99.90;;;;;;5076429;28;20048;-69
2022/06/20 04:51:23;;;;;;;2.28;0.90;;;12.50;99.90;;;;;;5076863;28;20080;-69
2022/06/20 04:53:50;;;;;;;1.27;1.00;;;12.60;99.90;;;;;;5077007;28;20109;-69
2022/06/20 04:56:26;;;;;;;2.25;0.80;;;12.60;99.90;;;;;;5076913;28;20052;-70
2022/06/20 04:59:00;;;;;;;2.92;1.10;;;12.70;99.90;;;;;;5059826;28;20036;-69
2022/06/20 05:01:28;;;;;;;1.45;0.70;;;12.80;99.90;;;;;;5076901;28;20039;-69
2022/06/20 05:04:05;;;;;;;3.30;1.05;;;12.80;99.90;;;;;;5076977;28;20039;-69
2022/06/20 05:06:32;;;;;;;3.50;0.75;;;12.80;99.90;;;;;;5076711;28;20079;-69
2022/06/20 05:09:19;;;;;;;1.52;0.85;;;12.80;99.90;;;;;;5076687;28;20043;-69
2022/06/20 05:11:52;;;;;;;3.58;1.13;;;12.90;99.90;;;;;;5076848;28;20047;-69
2022/06/20 05:14:24;;;;;;;1.55;0.68;;;12.90;99.90;;;;;;5060024;28;20450;-69
2022/06/20 05:16:52;;;;;;;2.13;0.80;;;13.00;99.90;;;;;;5076477;28;20051;-69
2022/06/20 05:19:30;;;;;;;1.45;0.85;;;13.10;99.90;;;;;;5076521;28;20040;-69
2022/06/20 05:21:59;;;;;;;1.65;0.82;;;13.20;99.90;;;;;;5059976;28;20390;-69
2022/06/20 05:24:31;;;;;;;2.80;0.73;;;13.30;99.90;;;;;;5076395;28;20040;-69
2022/06/20 05:26:59;;;;;;;1.17;0.85;;;13.30;99.90;;;;;;5076299;28;20044;-69
2022/06/20 05:29:31;;;;;;;3.22;0.73;;;13.50;99.90;;;;;;5076233;28;20398;-69
2022/06/20 05:32:02;;;;;;;1.13;0.68;;;13.50;99.90;;;;;;5076245;28;20047;-70
2022/06/20 05:34:33;;;;;;;6.35;0.85;;;13.60;99.90;;;;;;5076239;28;20122;-70
2022/06/20 05:37:03;;;;;;;4.32;0.93;;;13.80;99.90;;;;;;5076247;28;20456;-70
2022/06/20 05:39:35;;;;;;;3.25;1.13;;;13.90;99.90;;;;;;5059750;28;20048;-70
2022/06/20 05:42:01;;;;;;;3.47;0.85;;;14.00;99.90;;;;;;5076394;28;20088;-69
2022/06/20 05:44:27;;;;;;;1.42;0.82;;;14.10;99.90;;;;;;5059332;28;20036;-71
2022/06/20 05:47:19;;;;;;;0.90;0.80;;;14.20;99.90;;;;;;5076047;28;20070;-70
2022/06/20 05:50:07;;;;;;;3.60;1.10;;;14.30;99.90;;;;;;5075770;28;20051;-70
2022/06/20 05:52:33;;;;;;;3.15;1.10;;;14.40;99.90;;;;;;5075753;28;20122;-71
2022/06/20 05:55:28;;;;;;;3.60;1.52;;;14.50;99.90;;;;;;5075775;28;20087;-70
2022/06/20 05:57:56;;;;;;;5.30;0.93;;;14.60;99.90;;;;;;5072826;28;20056;-71
2022/06/20 06:00:30;;;;;;;1.45;0.80;;;14.70;99.90;;;;;;5075817;28;20484;-70
2022/06/20 06:03:09;;;;;;;1.33;0.80;;;14.80;99.90;;;;;;5058738;28;20127;-71
2022/06/20 06:05:45;;;;;;;2.85;1.08;;;14.90;99.90;;;;;;5075665;28;20083;-70
2022/06/20 06:08:28;;;;;;;2.40;1.10;;;15.00;99.90;;;;;;5075346;28;20052;-69
2022/06/20 06:11:36;;;;;;;5.10;1.33;;;15.10;99.90;;;;;;5075325;28;20535;-70
2022/06/20 06:14:22;;;;;;;1.45;0.90;;;15.10;99.90;;;;;;5037385;28;20052;-69
2022/06/20 06:17:04;;;;;;;4.05;0.98;;;15.30;99.90;;;;;;5075189;28;20094;-72
2022/06/20 06:19:54;;;;;;;2.35;1.15;;;15.40;99.90;;;;;;5058893;28;20047;-69
2022/06/20 06:22:30;;;;;;;2.50;1.20;;;15.40;99.90;;;;;;5075238;28;20119;-68
2022/06/20 06:25:00;;;;;;;2.58;1.25;;;15.50;99.90;;;;;;5075123;28;20036;-70
2022/06/20 06:27:31;;;;;;;2.55;1.17;;;15.40;99.90;;;;;;5058828;28;20119;-69
2022/06/20 06:30:02;;;;;;;;;;;15.60;99.90;;;;;;5075886;28;20040;-68
2022/06/20 06:32:36;;;;;;;2.15;1.10;;;15.70;99.90;;;;;;5075140;28;19916;-68
2022/06/20 06:35:31;;;;;;;2.40;1.25;;;15.80;99.90;;;;;;5058404;28;20040;-69
2022/06/20 06:38:13;;;;;;;2.00;1.42;;;15.90;99.90;;;;;;5075333;28;20092;-70
2022/06/20 06:40:50;;;;;;;1.08;0.77;;;15.90;99.90;;;;;;5075074;28;20082;-69
2022/06/20 06:43:23;;;;;;;3.63;1.20;;;15.80;99.90;;;;;;5075059;28;20040;-70
2022/06/20 06:45:52;;;;;;;3.58;1.20;;;15.90;99.90;;;;;;5075026;28;20050;-70
2022/06/20 06:48:37;;;;;;;1.83;1.00;;;16.00;99.90;;;;;;5075222;28;20050;-69
2022/06/20 06:51:22;;;;;;;1.42;1.00;;;16.10;99.90;;;;;;5075114;28;20099;-69
2022/06/20 06:54:09;;;;;;;3.15;0.98;;;16.30;99.90;;;;;;5074906;28;20075;-69
2022/06/20 06:56:42;;;;;;;5.97;1.27;;;16.50;99.90;;;;;;5074791;28;20098;-70
2022/06/20 06:59:31;;;;;;;6.28;1.40;;;16.60;99.90;;;;;;5074955;28;20040;-71
2022/06/20 07:02:00;;;;;;;3.22;0.98;;;16.60;99.90;;;;;;5075006;28;20391;-69
2022/06/20 07:04:32;;;;;;;1.08;0.82;;;16.50;99.90;;;;;;5075058;28;20028;-69
2022/06/20 07:07:04;;;;;;;0.98;0.77;;;16.50;99.90;;;;;;5074815;28;20093;-68
2022/06/20 07:09:42;;;;;;;4.55;1.13;;;16.40;99.90;;;;;;5057995;28;20043;-69
2022/06/20 07:12:19;;;;;;;4.18;1.42;;;16.40;99.90;;;;;;5074740;28;20119;-69
2022/06/20 07:14:57;;;;;;;4.72;1.02;;;16.20;99.90;;;;;;5074707;28;20039;-69
2022/06/20 07:17:32;;;;;;;2.03;0.90;;;16.00;99.90;;;;;;5074822;28;20052;-69
2022/06/20 07:19:58;;;;;;;1.45;0.90;;;16.20;99.90;;;;;;5075067;28;20435;-70
2022/06/20 07:22:25;;;;;;;4.93;1.00;;;16.40;99.90;;;;;;5062074;28;20105;-69
2022/06/20 07:24:52;;;;;;;1.88;1.00;;;16.40;99.90;;;;;;5062170;28;20488;-71
2022/06/20 07:27:37;;;;;;;2.13;1.00;;;16.50;99.90;;;;;;5078576;28;20048;-69
2022/06/20 07:30:09;;;;;;;4.18;1.35;;;16.50;99.90;;;;;;5078679;28;20152;-69
2022/06/20 07:32:49;;;;;;;3.47;1.08;;;16.80;99.90;;;;;;5061700;28;20040;-68
2022/06/20 07:35:20;;;;;;;1.95;1.00;;;16.90;99.90;;;;;;5078297;28;20047;-70
2022/06/20 07:38:06;;;;;;;1.70;1.00;;;17.00;99.90;;;;;;5078410;28;20036;-69
2022/06/20 07:40:42;;;;;;;2.83;0.85;;;17.20;99.90;;;;;;5078292;28;20032;-69
2022/06/20 07:43:37;;;;;;;1.25;0.85;;;17.20;99.90;;;;;;5078302;28;20040;-69
2022/06/20 07:46:17;;;;;;;1.88;1.13;;;17.00;99.90;;;;;;5061777;28;20043;-69
2022/06/20 07:48:46;;;;;;;0.70;0.70;;;16.80;99.90;;;;;;5078460;28;20048;-69
2022/06/20 07:51:30;;;;;;;2.95;1.20;;;16.70;99.90;;;;;;5074576;28;20414;-68
2022/06/20 07:54:06;;;;;;;1.35;0.88;;;17.00;99.90;;;;;;5058004;28;20052;-69
2022/06/20 07:56:50;;;;;;;3.17;1.40;;;17.20;99.90;;;;;;5074716;28;20033;-68
2022/06/20 07:59:21;;;;;;;2.33;1.00;;;17.40;99.90;;;;;;5074577;28;20407;-68
2022/06/20 08:02:13;;;;;;;4.75;1.15;;;17.70;99.90;;;;;;5074611;28;20124;-70
2022/06/20 08:04:42;;;;;;;1.85;1.02;;;17.70;99.90;;;;;;5052252;28;20048;-69
2022/06/20 08:07:20;;;;;;;2.80;1.10;;;17.60;99.90;;;;;;5074747;28;20036;-69
2022/06/20 08:10:04;;;;;;;3.97;1.17;;;17.50;99.90;;;;;;5074559;28;20373;-69
2022/06/20 08:12:41;;;;;;;4.97;0.93;;;17.30;99.90;;;;;;5074638;28;20058;-70
2022/06/20 08:15:31;;;;;;;2.63;0.95;;;17.10;99.90;;;;;;5074246;28;20066;-69
2022/06/20 08:17:58;;;;;;;4.40;1.40;;;17.00;99.90;;;;;;5073926;28;20037;-69
2022/06/20 08:20:27;;;;;;;1.05;0.90;;;16.70;99.90;;;;;;5074203;28;20048;-69
2022/06/20 08:23:16;;;;;;;1.88;0.70;;;16.40;99.90;;;;;;5074222;28;20150;-69
2022/06/20 08:25:48;;;;;;;1.65;1.00;;;16.30;99.90;;;;;;5074316;28;20127;-68
2022/06/20 08:28:46;;;;;;;2.85;1.08;;;16.60;99.90;;;;;;5074132;28;20044;-69
2022/06/20 08:31:20;;;;;;;1.17;0.80;;;17.00;99.90;;;;;;5073226;28;20083;-69
2022/06/20 08:34:11;;;;;;;1.77;0.85;;;17.20;99.90;;;;;;5056778;28;20521;-68
2022/06/20 08:37:09;;;;;;;2.13;1.05;;;17.30;99.90;;;;;;5057201;28;20098;-68
2022/06/20 08:39:46;;;;;;;1.35;0.70;;;17.20;99.90;;;;;;5073612;28;20127;-70
2022/06/20 08:42:46;;;;;;;1.20;0.57;;;17.30;99.90;;;;;;5057444;28;20051;-70
2022/06/20 08:45:45;;;;;;;2.40;0.80;;;17.30;99.90;;;;;;5074137;28;20051;-69
2022/06/20 08:48:20;;;;;;;1.13;0.55;;;17.50;99.90;;;;;;5073690;28;20404;-69
2022/06/20 08:51:04;;;;;;;0.40;0.40;;;17.60;99.90;;;;;;5073756;28;20049;-70
2022/06/20 08:53:38;;;;;;;1.38;0.68;;;17.60;99.90;;;;;;5057239;28;20137;-70
2022/06/20 08:56:26;;;;;;;1.23;0.70;;;17.70;99.90;;;;;;5073672;28;20033;-69
2022/06/20 08:59:06;;;;;;;0.85;0.52;;;17.90;99.90;;;;;;5056778;28;20090;-70
2022/06/20 09:02:00;;;;;;;2.50;0.70;;;18.10;99.90;;;;;;5073541;28;20404;-69
2022/06/20 09:04:26;;;;;;;0.95;0.63;;;17.90;99.90;;;;;;5073467;28;20075;-70
2022/06/20 09:07:25;;;;;;;0.73;0.50;;;18.10;99.90;;;;;;5073611;28;20409;-69
2022/06/20 09:10:25;;;;;;;0.93;0.57;;;18.50;99.90;;;;;;5073327;28;20040;-70
2022/06/20 09:13:32;;;;;;;0.77;0.70;;;18.80;99.90;;;;;;5073266;28;20047;-69
2022/06/20 09:16:19;;;;;;;0.68;0.68;;;18.60;99.90;;;;;;4957414;28;20146;-68
2022/06/20 09:18:56;;;;;;;0.82;0.70;;;18.40;99.90;;;;;;5070730;28;20080;-70
2022/06/20 09:21:34;;;;;;;0.70;0.57;;;18.30;99.90;;;;;;5073208;28;20033;-69
2022/06/20 09:24:35;;;;;;;3.70;1.10;;;18.30;99.90;;;;;;5073067;28;20047;-69
2022/06/20 09:27:07;;;;;;;;;;;18.30;99.90;;;;;;5073283;28;20074;-70
2022/06/20 09:29:41;;;;;;;1.77;0.73;;;18.40;99.90;;;;;;5072898;28;19963;-70
2022/06/20 09:32:10;;;;;;;2.22;0.80;;;18.60;99.90;;;;;;5073088;28;20036;-69
2022/06/20 09:34:48;;;;;;;2.13;0.73;;;18.90;99.90;;;;;;5073080;28;20043;-69
2022/06/20 09:37:33;;;;;;;1.35;0.57;;;18.90;99.90;;;;;;5056021;28;20041;-69
2022/06/20 09:40:14;;;;;;;0.95;0.45;;;18.80;99.90;;;;;;5073028;28;20540;-69
2022/06/20 09:42:42;;;;;;;;;;;18.60;99.90;;;;;;5073043;28;20090;-68
2022/06/20 09:45:11;;;;;;;3.85;0.63;;;18.30;99.90;;;;;;5072582;28;19917;-69
2022/06/20 09:47:58;;;;;;;3.53;0.95;;;18.10;99.90;;;;;;5056144;28;20476;-68
2022/06/20 09:50:43;;;;;;;0.77;0.60;;;17.90;99.90;;;;;;5072977;28;20119;-68
2022/06/20 09:53:14;;;;;;;0.82;0.80;;;17.70;99.90;;;;;;5076043;28;20047;-69
2022/06/20 09:56:04;;;;;;;1.33;0.70;;;17.80;99.90;;;;;;5059109;28;20082;-69
2022/06/20 09:58:40;;;;;;;1.20;0.52;;;18.10;99.90;;;;;;5076066;28;20036;-69
2022/06/20 10:01:25;;;;;;;2.28;0.80;;;18.10;99.90;;;;;;5075659;28;20114;-69
2022/06/20 10:04:00;;;;;;;0.95;0.60;;;18.40;99.90;;;;;;5075653;28;20036;-68
2022/06/20 10:06:55;;;;;;;1.33;0.50;;;18.90;99.90;;;;;;5075511;28;20048;-69
2022/06/20 10:09:23;;;;;;;0.60;0.45;;;19.00;99.90;;;;;;5075575;28;20169;-68
2022/06/20 10:12:23;;;;;;;1.05;0.77;;;18.80;99.90;;;;;;5075427;28;20101;-69
2022/06/20 10:15:03;;;;;;;2.85;0.73;;;18.70;99.90;;;;;;5075405;28;20047;-68
2022/06/20 10:17:43;;;;;;;0.60;0.60;;;18.50;99.90;;;;;;5058653;28;20076;-68
2022/06/20 10:20:40;;;;;;;3.17;0.70;;;18.30;99.90;;;;;;5075610;28;20123;-68
2022/06/20 10:23:26;;;;;;;0.65;0.40;;;18.50;99.90;;;;;;5070580;28;20083;-68
2022/06/20 10:26:15;;;;;;;2.08;1.13;;;18.50;99.90;;;;;;5075202;28;20040;-69
2022/06/20 10:29:13;;;;;;;1.40;0.70;;;18.60;99.90;;;;;;5075115;28;20136;-68
2022/06/20 10:32:03;;;;;;;1.45;0.60;;;18.60;99.90;;;;;;5075307;28;20548;-69
2022/06/20 10:34:42;;;;;;;1.08;0.47;;;18.70;99.90;;;;;;5074488;28;20083;-68
2022/06/20 10:37:32;;;;;;;2.17;0.70;;;18.70;99.90;;;;;;5075100;28;20036;-69
2022/06/20 10:40:10;;;;;;;2.08;0.95;;;18.70;99.90;;;;;;5075000;28;20032;-69
2022/06/20 10:43:00;;;;;;;0.80;0.45;;;18.40;99.90;;;;;;5075161;28;20540;-69
2022/06/20 10:45:26;;;;;;;1.75;0.70;;;18.50;99.90;;;;;;5075379;28;20087;-70
2022/06/20 10:48:30;;;;;;;0.40;0.40;;;18.70;99.90;;;;;;5075087;28;20083;-69
2022/06/20 10:51:20;;;;;;;1.23;0.60;;;19.00;99.90;;;;;;5039148;28;20583;-69
2022/06/20 10:54:14;;;;;;;0.63;0.50;;;18.90;99.90;;;;;;5074898;28;20051;-70
2022/06/20 10:56:48;;;;;;;1.08;0.63;;;18.70;99.90;;;;;;5054861;28;20131;-69
2022/06/20 10:59:28;;;;;;;1.17;0.60;;;18.70;99.90;;;;;;5074830;28;20048;-69
2022/06/20 11:02:25;;;;;;;0.60;0.52;;;18.80;99.90;;;;;;5075063;28;20069;-69
2022/06/20 11:05:03;;;;;;;0.60;0.60;;;18.80;99.90;;;;;;5058022;28;20063;-69
2022/06/20 11:07:49;;;;;;;0.73;0.60;;;18.80;99.90;;;;;;5074798;28;20043;-70
2022/06/20 11:10:17;;;;;;;1.05;0.68;;;18.90;99.90;;;;;;5074897;28;20089;-69
2022/06/20 11:13:15;;;;;;;0.80;0.60;;;19.20;99.90;;;;;;5058045;28;20072;-70
2022/06/20 11:16:08;;;;;;;0.38;0.38;;;19.10;99.90;;;;;;5055520;28;20056;-69
2022/06/20 11:19:15;;;;;;;1.45;0.40;;;19.00;99.90;;;;;;5074657;28;20040;-72
2022/06/20 11:21:49;;;;;;;1.00;0.63;;;18.70;99.90;;;;;;4975046;28;20035;-69
2022/06/20 11:24:28;;;;;;;1.23;0.60;;;18.80;99.90;;;;;;5060083;28;20518;-70
2022/06/20 11:27:05;;;;;;;1.23;0.70;;;18.90;99.90;;;;;;5057935;28;20070;-71
2022/06/20 11:29:37;;;;;;;1.38;0.65;;;18.70;99.90;;;;;;5074769;28;20399;-70
2022/06/20 11:32:47;;;;;;;3.72;0.82;;;18.50;99.90;;;;;;5074759;28;20499;-69
2022/06/20 11:35:25;;;;;;;0.47;0.45;;;18.80;99.90;;;;;;5032852;28;20052;-69
2022/06/20 11:37:59;;;;;;;1.02;0.75;;;18.70;99.90;;;;;;5074648;28;20094;-69
2022/06/20 11:40:32;;;;;;;0.88;0.68;;;18.50;99.90;;;;;;5057613;28;20036;-70
2022/06/20 11:43:26;;;;;;;2.65;0.93;;;18.60;99.90;;;;;;5057649;28;20076;-71
2022/06/20 11:46:13;;;;;;;1.67;0.77;;;18.80;99.90;;;;;;5074710;28;20043;-70
2022/06/20 11:48:57;;;;;;;3.17;0.70;;;18.90;99.90;;;;;;5074476;28;20076;-69
2022/06/20 11:51:46;;;;;;;3.80;1.20;;;19.00;99.90;;;;;;5070868;28;20072;-70
2022/06/20 11:54:41;;;;;;;0.75;0.63;;;18.70;99.90;;;;;;5071250;28;20404;-70
2022/06/20 11:57:22;;;;;;;0.95;0.68;;;18.50;99.90;;;;;;5070985;28;20091;-70
2022/06/20 11:59:53;;;;;;;;;;;18.40;99.90;;;;;;5071248;28;20079;-70
2022/06/20 12:02:27;;;;;;;2.25;0.90;;;18.50;99.90;;;;;;5071228;28;19963;-70
2022/06/20 12:05:27;;;;;;;1.58;0.60;;;18.40;99.90;;;;;;5054164;28;20040;-70
2022/06/20 12:08:02;;;;;;;2.22;0.95;;;18.60;99.90;;;;;;5072583;28;20106;-70
2022/06/20 12:10:43;;;;;;;4.63;0.70;;;18.60;99.90;;;;;;5074452;28;20040;-69
2022/06/20 12:13:21;;;;;;;;;;;18.50;99.90;;;;;;5058175;28;20121;-69
2022/06/20 12:16:12;;;;;;;3.67;0.75;;;18.60;99.90;;;;;;5074541;28;20013;-70
2022/06/20 12:23:18;;;;;;;1.08;0.70;;;19.00;99.90;;;;;;5074284;28;20047;-70
2022/06/20 12:24:15;;;;;;;0.68;0.68;;;19.20;99.90;;;;;;5074400;28;20052;-69
2022/06/20 12:26:40;;;;;;;0.65;0.52;;;18.90;99.90;;;;;;5074362;28;20079;-69
2022/06/20 12:29:14;;;;;;;0.93;0.65;;;18.80;99.90;;;;;;5057349;28;20126;-70
2022/06/20 12:31:44;;;;;;;2.58;0.70;;;18.60;99.90;;;;;;5074024;28;20123;-71
2022/06/20 12:34:21;;;;;;;0.93;0.70;;;18.80;99.90;;;;;;5074277;28;20511;-70
2022/06/20 12:36:54;;;;;;;1.35;0.70;;;19.10;99.90;;;;;;5057196;28;20153;-70
2022/06/20 12:39:31;;;;;;;0.82;0.73;;;19.20;99.90;;;;;;5073993;28;20051;-70
2022/06/20 12:42:20;;;;;;;0.73;0.60;;;19.40;99.90;;;;;;5074210;28;20152;-70
2022/06/20 12:44:59;;;;;;;2.00;0.80;;;19.20;99.90;;;;;;5073770;28;20033;-71
2022/06/20 12:48:02;;;;;;;1.05;0.70;;;19.10;99.90;;;;;;5073780;28;20040;-70
2022/06/20 12:50:31;;;;;;;1.13;0.70;;;19.30;99.90;;;;;;5073972;28;20492;-67
2022/06/20 12:53:17;;;;;;;1.73;0.70;;;19.50;99.90;;;;;;5073553;28;20053;-67
2022/06/20 12:56:20;;;;;;;2.58;0.47;;;19.50;99.90;;;;;;5073844;28;20044;-68
2022/06/20 12:59:24;;;;;;;2.00;0.80;;;19.40;99.90;;;;;;5073805;28;20047;-68
2022/06/20 13:02:23;;;;;;;4.03;1.15;;;19.10;99.90;;;;;;5056798;28;20047;-68
2022/06/20 13:05:13;;;;;;;1.25;0.70;;;19.20;99.90;;;;;;5073690;28;20036;-68
2022/06/20 13:08:26;;;;;;;0.73;0.70;;;19.30;99.90;;;;;;5073351;28;20040;-67
2022/06/20 13:11:13;;;;;;;3.13;0.57;;;19.10;99.30;;;;;;5020851;28;20044;-67
2022/06/20 13:13:48;;;;;;;0.60;0.50;;;19.50;99.90;;;;;;5073252;28;20075;-67
2022/06/20 13:16:59;;;;;;;1.10;0.70;;;19.40;98.70;;;;;;5073373;28;20135;-67
2022/06/20 13:19:55;;;;;;;0.80;0.55;;;19.40;99.00;;;;;;5043099;28;20044;-69
2022/06/20 13:22:26;;;;;;;0.85;0.60;;;19.30;99.50;;;;;;5056438;28;20044;-71
2022/06/20 13:25:33;;;;;;;0.60;0.60;;;19.20;99.90;;;;;;5056344;28;20093;-69
2022/06/20 13:28:13;;;;;;;0.73;0.60;;;19.20;99.90;;;;;;5072616;28;20506;-70
2022/06/20 13:31:02;;;;;;;2.45;1.00;;;19.00;99.90;;;;;;5072898;28;20040;-69
2022/06/20 13:33:51;;;;;;;2.05;0.68;;;19.00;99.90;;;;;;5056208;28;20047;-70
2022/06/20 13:36:43;;;;;;;1.05;0.73;;;18.90;99.90;;;;;;5072682;28;20050;-73
2022/06/20 13:39:24;;;;;;;0.50;0.50;;;18.90;99.90;;;;;;5073090;28;20361;-72
2022/06/20 13:42:01;;;;;;;1.27;0.70;;;19.20;99.90;;;;;;5072970;28;20476;-72
2022/06/20 13:44:34;;;;;;;1.08;0.70;;;19.20;99.90;;;;;;5073000;28;20040;-72
2022/06/20 13:47:10;;;;;;;0.77;0.60;;;19.20;99.90;;;;;;5056176;28;20036;-72
2022/06/20 13:49:54;;;;;;;1.15;0.60;;;18.90;99.90;;;;;;5055856;28;20041;-72
2022/06/20 13:52:43;;;;;;;1.58;0.80;;;18.80;99.90;;;;;;5055791;28;20059;-71
2022/06/20 13:55:48;;;;;;;1.02;0.77;;;18.70;99.90;;;;;;5055791;28;20051;-72